Time;durP1;ratioP1;P1;durP2;ratioP2;P2;SDS_P1;SDS_P2;PMS_P1;PMS_P2;Temp;Humidity;BMP_temperature;BMP_pressure;BME280_temperature;BME280_humidity;BME280_pressure;Samples;Min_cycle;Max_cycle;Signal;HPM_P1;HPM_P2
2022/04/17 00:01:03;;;;;;;10.20;5.10;;;;;;;-0.13;66.49;101262.80;213753;1277;140299;-65
2022/04/17 00:06:06;;;;;;;9.80;6.50;;;;;;;-0.09;66.54;101260.05;214782;1277;141132;-66
2022/04/17 00:11:09;;;;;;;10.50;7.20;;;;;;;-0.08;66.67;101257.32;215574;1277;140061;-68
2022/04/17 00:16:11;;;;;;;15.60;7.50;;;;;;;-0.06;66.81;101252.27;214135;1277;139677;-67
2022/04/17 00:21:15;;;;;;;10.10;7.70;;;;;;;-0.09;66.98;101247.30;215051;1277;141034;-67
2022/04/17 00:26:18;;;;;;;7.30;5.00;;;;;;;-0.16;66.96;101244.59;214417;1279;140309;-66
2022/04/17 00:31:21;;;;;;;9.90;5.70;;;;;;;-0.34;67.20;101241.14;213101;1277;139653;-65
2022/04/17 00:36:23;;;;;;;9.80;5.90;;;;;;;-0.46;67.58;101234.45;213030;1277;141099;-64
2022/04/17 00:41:27;;;;;;;11.40;5.60;;;;;;;-0.47;67.98;101229.52;213681;1277;141584;-65
2022/04/17 00:46:30;;;;;;;9.90;6.60;;;;;;;-0.46;68.22;101229.02;213428;1276;154045;-64
2022/04/17 00:51:36;;;;;;;18.10;7.90;;;;;;;-0.43;68.31;101221.70;213752;1277;140283;-66
2022/04/17 00:56:41;;;;;;;9.90;6.20;;;;;;;-0.40;68.65;101221.05;213771;1276;141345;-66
2022/04/17 01:01:43;;;;;;;9.10;5.50;;;;;;;-0.38;68.69;101215.70;213836;1276;139479;-66
2022/04/17 01:06:46;;;;;;;10.40;6.80;;;;;;;-0.42;68.51;101210.42;214507;1277;140553;-67
2022/04/17 01:11:51;;;;;;;8.30;5.20;;;;;;;-0.51;68.61;101206.24;214174;1277;139728;-69
2022/04/17 01:16:57;;;;;;;;;;;;;;;-0.61;68.65;101203.64;214330;1277;140021;-70
2022/04/17 01:21:59;;;;;;;8.50;4.60;;;;;;;-0.74;68.70;101200.65;213998;1276;126143;-67
2022/04/17 01:27:03;;;;;;;7.80;3.90;;;;;;;-0.81;69.14;101196.88;214023;1277;139394;-67
2022/04/17 01:32:08;;;;;;;11.00;5.90;;;;;;;-0.88;69.19;101198.66;213784;1277;140694;-66
2022/04/17 01:37:13;;;;;;;7.00;5.80;;;;;;;-0.92;69.18;101196.62;214578;1276;140434;-67
2022/04/17 01:42:16;;;;;;;8.60;5.90;;;;;;;-0.91;69.49;101198.44;213602;1277;140020;-67
2022/04/17 01:47:19;;;;;;;12.20;6.10;;;;;;;-0.92;69.55;101197.84;213147;1277;140901;-68
2022/04/17 01:52:22;;;;;;;12.40;6.70;;;;;;;-0.98;69.31;101194.48;214123;1277;141267;-68
2022/04/17 01:57:25;;;;;;;15.70;7.90;;;;;;;-1.00;69.63;101190.97;214324;1276;140872;-66
2022/04/17 02:02:28;;;;;;;14.30;7.40;;;;;;;-1.02;69.75;101186.40;215750;1277;139673;-67
2022/04/17 02:07:30;;;;;;;10.20;6.00;;;;;;;-1.06;69.80;101191.92;215565;1279;140835;-69
2022/04/17 02:12:33;;;;;;;13.40;6.40;;;;;;;-1.09;69.85;101193.22;215428;1278;140221;-70
2022/04/17 02:17:36;;;;;;;10.70;6.00;;;;;;;-1.09;69.98;101190.94;215326;1276;140585;-69
2022/04/17 02:22:39;;;;;;;10.50;6.40;;;;;;;-1.04;69.89;101188.50;213793;1277;140866;-69
2022/04/17 02:27:41;;;;;;;11.50;6.00;;;;;;;-1.00;70.11;101188.69;214099;1277;141420;-68
2022/04/17 02:32:45;;;;;;;9.00;6.40;;;;;;;-0.98;70.06;101189.91;214262;1277;141063;-66
2022/04/17 02:37:49;;;;;;;8.50;5.30;;;;;;;-1.00;70.18;101185.90;214265;1279;139306;-66
2022/04/17 02:42:53;;;;;;;10.30;6.60;;;;;;;-1.07;70.28;101190.63;213035;1279;140286;-66
2022/04/17 02:47:55;;;;;;;8.10;5.60;;;;;;;-1.13;70.38;101191.11;214203;1277;139928;-67
2022/04/17 02:52:59;;;;;;;8.80;4.90;;;;;;;-1.22;70.49;101189.58;213557;1277;140654;-66
2022/04/17 02:58:02;;;;;;;7.20;5.60;;;;;;;-1.27;70.59;101192.43;213930;1277;140829;-66
2022/04/17 03:08:28;;;;;;;6.90;4.20;;;;;;;-1.36;70.61;101190.88;213470;1277;140184;-64
2022/04/17 03:13:31;;;;;;;9.50;5.80;;;;;;;-1.40;70.72;101188.98;213781;1277;140194;-64
2022/04/17 03:18:33;;;;;;;11.80;6.60;;;;;;;-1.43;70.72;101188.65;213938;1279;139880;-64
2022/04/17 03:23:36;;;;;;;13.10;5.90;;;;;;;-1.47;71.06;101186.52;213274;1279;140787;-66
2022/04/17 03:28:40;;;;;;;9.10;6.30;;;;;;;-1.52;70.93;101186.98;213762;1277;140539;-64
2022/04/17 03:33:44;;;;;;;12.70;5.70;;;;;;;-1.54;71.04;101186.27;214127;1277;140405;-64
2022/04/17 03:38:47;;;;;;;14.50;9.70;;;;;;;-1.50;71.18;101189.06;213270;1279;140588;-64
2022/04/17 03:43:50;;;;;;;12.40;7.30;;;;;;;-1.49;71.17;101190.58;214484;1277;140010;-63
2022/04/17 03:48:52;;;;;;;11.80;7.90;;;;;;;-1.50;71.30;101186.25;214212;1277;141918;-64
2022/04/17 03:53:54;;;;;;;11.00;5.60;;;;;;;-1.50;71.26;101187.33;213386;1277;140751;-64
2022/04/17 03:58:57;;;;;;;14.40;7.00;;;;;;;-1.45;71.46;101188.96;215754;1277;141887;-64
2022/04/17 04:03:59;;;;;;;14.70;9.70;;;;;;;-1.33;71.47;101191.88;215591;1276;140201;-65
2022/04/17 04:09:02;;;;;;;11.50;6.50;;;;;;;-1.18;71.58;101191.73;215599;1277;141024;-65
2022/04/17 04:14:05;;;;;;;16.10;7.10;;;;;;;-1.09;71.36;101192.70;215775;1276;140674;-64
2022/04/17 04:19:10;;;;;;;10.50;6.10;;;;;;;-1.05;71.34;101191.50;215867;1277;139795;-66
2022/04/17 04:24:19;;;;;;;6.70;6.10;;;;;;;-1.08;71.11;101186.48;215503;1277;140032;-70
2022/04/17 04:29:23;;;;;;;11.30;7.00;;;;;;;-1.08;71.16;101188.77;215052;1277;139887;-70
2022/04/17 04:34:24;;;;;;;11.30;6.70;;;;;;;-0.98;71.55;101189.77;214888;1277;139618;-67
2022/04/17 04:39:30;;;;;;;10.30;6.70;;;;;;;-0.89;71.35;101191.80;213015;1277;141608;-66
2022/04/17 04:44:34;;;;;;;14.10;7.20;;;;;;;-0.80;71.43;101197.70;214735;1277;141233;-66
2022/04/17 04:49:37;;;;;;;11.20;6.50;;;;;;;-0.64;71.77;101202.96;213403;1277;141920;-66
2022/04/17 04:54:40;;;;;;;11.20;7.80;;;;;;;-0.43;72.14;101205.42;213797;1277;142036;-63
2022/04/17 04:59:44;;;;;;;14.60;7.20;;;;;;;-0.22;72.44;101205.36;214096;1276;140920;-62
2022/04/17 05:04:47;;;;;;;11.40;6.90;;;;;;;-0.01;72.39;101206.27;213547;1276;140841;-62
2022/04/17 05:09:52;;;;;;;9.50;5.70;;;;;;;0.16;72.51;101203.32;213155;1276;141121;-67
2022/04/17 05:14:54;;;;;;;9.80;6.70;;;;;;;0.35;72.52;101208.88;213110;1277;142214;-67
2022/04/17 05:19:57;;;;;;;13.20;7.30;;;;;;;0.52;72.28;101208.14;213174;1278;145803;-67
2022/04/17 05:25:02;;;;;;;13.80;6.50;;;;;;;0.74;72.64;101205.67;213106;1276;141242;-63
2022/04/17 05:30:08;;;;;;;10.00;5.50;;;;;;;1.00;72.24;101207.89;213660;1276;139694;-65
2022/04/17 05:35:12;;;;;;;11.20;7.30;;;;;;;1.21;72.31;101207.71;213591;1279;139959;-65
2022/04/17 05:40:15;;;;;;;8.00;5.90;;;;;;;1.49;71.90;101207.42;214016;1277;139843;-66
2022/04/17 05:45:19;;;;;;;11.50;5.80;;;;;;;1.81;71.94;101201.16;213017;1277;142108;-66
2022/04/17 05:50:23;;;;;;;13.60;6.80;;;;;;;1.98;71.53;101196.00;214202;1277;140470;-65
2022/04/17 05:55:27;;;;;;;12.30;6.60;;;;;;;2.15;71.50;101193.19;213195;1277;141279;-64
2022/04/17 06:00:30;;;;;;;14.00;6.60;;;;;;;2.31;71.44;101193.21;215128;1277;139657;-68
2022/04/17 06:05:33;;;;;;;7.80;4.90;;;;;;;2.50;71.15;101192.19;214486;1277;140450;-69
2022/04/17 06:10:37;;;;;;;8.20;5.10;;;;;;;2.65;70.84;101193.30;213699;1277;139905;-68
2022/04/17 06:15:40;;;;;;;8.70;4.60;;;;;;;2.83;70.60;101192.11;212993;1277;139873;-67
2022/04/17 06:20:43;;;;;;;8.30;5.30;;;;;;;2.95;70.21;101187.70;214756;1278;139649;-71
2022/04/17 06:25:45;;;;;;;10.10;5.30;;;;;;;3.05;69.52;101184.66;214177;1278;140103;-67
2022/04/17 06:30:47;;;;;;;7.60;4.10;;;;;;;3.25;69.43;101182.20;213930;1277;140928;-66
2022/04/17 06:35:51;;;;;;;5.30;3.10;;;;;;;3.41;69.08;101177.89;214408;1277;139763;-67
2022/04/17 06:40:53;;;;;;;6.70;3.30;;;;;;;3.61;68.56;101180.45;213497;1277;140677;-66
2022/04/17 06:45:56;;;;;;;5.70;3.50;;;;;;;4.00;67.91;101183.35;214947;1277;141492;-64
2022/04/17 06:50:59;;;;;;;5.10;3.50;;;;;;;4.74;66.97;101180.13;214626;1277;140320;-64
2022/04/17 06:56:02;;;;;;;4.10;3.10;;;;;;;6.10;66.00;101169.92;214844;1276;139372;-64
2022/04/17 07:01:11;;;;;;;2.90;2.30;;;;;;;7.11;64.61;101160.95;214359;1278;139104;-63
2022/04/17 07:06:18;;;;;;;3.40;2.90;;;;;;;7.53;62.78;101166.02;213836;1277;139753;-65
2022/04/17 07:11:23;;;;;;;6.60;2.30;;;;;;;7.56;61.70;101165.01;213696;1277;140703;-65
2022/04/17 07:16:25;;;;;;;3.00;2.50;;;;;;;7.71;60.90;101161.07;212917;1277;142086;-64
2022/04/17 07:21:28;;;;;;;2.60;2.00;;;;;;;8.33;60.46;101155.58;212757;1276;140871;-65
2022/04/17 07:26:31;;;;;;;2.50;2.30;;;;;;;8.93;60.02;101157.27;213833;1276;140998;-65
2022/04/17 07:31:34;;;;;;;3.80;2.20;;;;;;;9.52;58.92;101153.80;212953;1278;141557;-66
2022/04/17 07:36:36;;;;;;;3.10;2.10;;;;;;;9.93;57.89;101149.42;213283;1278;139744;-67
2022/04/17 07:41:39;;;;;;;2.30;2.10;;;;;;;10.36;57.68;101148.91;213414;1276;139577;-70
2022/04/17 07:46:42;;;;;;;2.40;2.20;;;;;;;10.46;55.97;101145.71;213774;1277;141159;-68
2022/04/17 07:51:45;;;;;;;2.60;1.70;;;;;;;10.48;54.70;101144.66;213088;1278;140553;-69
2022/04/17 07:56:48;;;;;;;1.10;1.00;;;;;;;10.40;53.77;101145.50;213895;1278;139724;-64
2022/04/17 08:01:50;;;;;;;1.80;0.90;;;;;;;10.34;52.88;101139.20;213661;1278;139362;-64
2022/04/17 08:06:54;;;;;;;2.20;1.30;;;;;;;10.40;52.38;101136.55;214955;1277;140004;-69
2022/04/17 08:11:59;;;;;;;1.20;1.10;;;;;;;10.29;51.16;101132.34;214006;1277;140503;-71
2022/04/17 08:17:02;;;;;;;2.00;1.60;;;;;;;10.28;51.25;101129.26;215238;1278;140060;-73
2022/04/17 08:22:05;;;;;;;2.40;1.50;;;;;;;10.33;50.47;101124.16;214072;1278;140116;-71
2022/04/17 08:27:07;;;;;;;2.20;2.00;;;;;;;10.42;50.66;101119.42;215518;1277;142636;-69
2022/04/17 08:32:10;;;;;;;2.30;1.70;;;;;;;10.66;51.07;101112.27;215539;1277;141163;-66
2022/04/17 08:37:13;;;;;;;2.30;2.10;;;;;;;10.84;50.31;101109.64;215647;1277;140276;-68
2022/04/17 08:42:17;;;;;;;3.30;2.20;;;;;;;11.02;50.25;101106.16;213387;1277;141500;-70
2022/04/17 08:47:20;;;;;;;1.50;1.20;;;;;;;11.27;50.18;101102.40;213651;1279;140467;-70
2022/04/17 08:52:23;;;;;;;2.20;1.60;;;;;;;11.38;49.73;101100.91;214737;1278;139390;-69
2022/04/17 08:57:28;;;;;;;4.40;1.80;;;;;;;11.46;49.10;101102.52;213064;1277;139829;-69
2022/04/17 09:02:31;;;;;;;1.80;1.70;;;;;;;11.49;49.26;101097.21;212873;1279;140218;-68
2022/04/17 09:07:48;;;;;;;4.10;1.80;;;;;;;11.51;48.38;101091.09;213899;1277;141654;-68
2022/04/17 09:12:55;;;;;;;2.90;1.70;;;;;;;11.55;48.22;101085.61;212932;1278;140711;-65
2022/04/17 09:18:02;;;;;;;1.50;1.50;;;;;;;11.65;47.98;101082.30;212928;1279;140402;-67
2022/04/17 09:23:05;;;;;;;1.10;1.10;;;;;;;11.46;47.29;101078.56;213162;1278;142575;-69
2022/04/17 09:28:10;;;;;;;2.70;1.50;;;;;;;11.40;46.64;101072.40;213077;1277;141198;-72
2022/04/17 09:33:14;;;;;;;2.50;2.30;;;;;;;11.44;47.03;101060.27;213666;1277;140546;-73
2022/04/17 09:38:27;;;;;;;2.00;1.80;;;;;;;11.63;47.36;101050.96;213352;1278;233583;-74
2022/04/17 09:43:35;;;;;;;1.50;1.40;;;;;;;11.90;47.26;101043.21;213229;1276;139685;-70
2022/04/17 09:48:38;;;;;;;3.90;1.60;;;;;;;12.01;46.68;101039.35;213812;1278;140240;-70
2022/04/17 09:53:40;;;;;;;2.90;2.10;;;;;;;12.07;46.45;101031.14;213486;1279;141478;-69
2022/04/17 09:58:47;;;;;;;3.10;1.80;;;;;;;11.93;45.92;101021.33;212814;1278;140540;-70
2022/04/17 10:03:52;;;;;;;1.90;1.30;;;;;;;11.58;45.98;101008.41;213840;1278;140543;-68
2022/04/17 10:08:58;;;;;;;1.70;1.50;;;;;;;11.26;45.91;101005.64;213759;1278;226731;-70
2022/04/17 10:14:02;;;;;;;1.70;1.60;;;;;;;11.18;46.19;101002.95;214556;1279;139729;-73
2022/04/17 10:19:13;;;;;;;2.50;2.30;;;;;;;11.76;46.04;100995.00;214540;1278;139681;-74
2022/04/17 10:24:21;;;;;;;2.00;1.70;;;;;;;12.20;45.27;100990.98;215255;1278;140660;-71
2022/04/17 10:29:42;;;;;;;2.60;1.60;;;;;;;12.60;44.35;100988.03;213790;1279;139485;-72
2022/04/17 10:35:08;;;;;;;2.40;2.20;;;;;;;12.26;43.06;100987.48;215531;1278;141251;-71
2022/04/17 10:40:12;;;;;;;3.70;1.70;;;;;;;11.59;43.19;100985.23;215725;1277;141405;-73
2022/04/17 10:45:15;;;;;;;1.40;1.30;;;;;;;11.36;43.20;100981.85;215496;1279;140500;-73
2022/04/17 10:50:21;;;;;;;2.50;1.50;;;;;;;11.35;43.88;100974.78;214964;1276;408103;-69
2022/04/17 10:55:25;;;;;;;2.50;1.70;;;;;;;11.98;44.38;100970.61;214408;1278;141443;-70
2022/04/17 11:00:32;;;;;;;1.60;1.50;;;;;;;12.55;43.56;100964.12;213690;1276;141047;-72
2022/04/17 11:06:18;;;;;;;4.30;1.80;;;;;;;12.56;42.56;100959.38;213199;1277;142265;-73
2022/04/17 11:11:22;;;;;;;1.60;1.50;;;;;;;12.23;42.65;100949.38;214049;1276;141300;-71
2022/04/17 11:16:27;;;;;;;0.90;0.90;;;;;;;11.84;42.31;100945.11;213319;1278;141145;-73
2022/04/17 11:21:47;;;;;;;1.60;1.50;;;;;;;11.89;42.44;100935.54;213285;1277;140455;-72
2022/04/17 11:26:53;;;;;;;1.60;1.50;;;;;;;12.11;42.81;100933.98;214077;1278;141522;-73
2022/04/17 11:31:57;;;;;;;1.90;1.80;;;;;;;12.65;42.95;100914.91;213353;1278;139492;-72
2022/04/17 11:37:03;;;;;;;3.20;1.70;;;;;;;12.97;42.60;100907.34;213324;1278;237718;-72
2022/04/17 11:42:06;;;;;;;1.60;1.50;;;;;;;13.36;42.18;100899.73;213252;1278;139550;-74
2022/04/17 11:47:16;;;;;;;0.70;0.70;;;;;;;13.62;42.07;100897.51;213402;1277;140216;-74
2022/04/17 11:52:21;;;;;;;2.30;1.70;;;;;;;13.77;40.98;100891.27;213413;1278;222790;-74
2022/04/17 11:57:28;;;;;;;8.30;1.80;;;;;;;13.69;40.74;100882.66;213023;1279;140311;-72
2022/04/17 12:02:31;;;;;;;1.50;1.40;;;;;;;13.71;40.29;100872.86;213296;1276;230551;-74
2022/04/17 12:07:34;;;;;;;1.30;1.30;;;;;;;13.63;40.23;100867.33;213532;1276;139744;-74
2022/04/17 12:12:43;;;;;;;2.50;1.50;;;;;;;13.63;39.85;100860.52;213728;1276;139418;-74
2022/04/17 12:17:58;;;;;;;1.80;1.50;;;;;;;13.60;39.70;100853.10;213287;1276;139538;-75
2022/04/17 12:23:02;;;;;;;1.60;1.50;;;;;;;13.68;40.29;100837.28;214197;1277;139521;-74
2022/04/17 12:28:06;;;;;;;1.60;1.50;;;;;;;13.84;40.00;100838.33;214168;1277;141804;-73
2022/04/17 12:33:22;;;;;;;2.50;2.40;;;;;;;13.77;39.27;100828.77;215209;1277;140179;-76
2022/04/17 12:38:25;;;;;;;0.90;0.90;;;;;;;13.61;39.18;100824.94;215373;1277;140522;-75
2022/04/17 12:43:30;;;;;;;3.90;1.30;;;;;;;13.54;39.09;100813.81;215674;1277;141133;-75
2022/04/17 12:48:35;;;;;;;1.70;1.10;;;;;;;13.56;39.00;100809.74;214394;1277;140638;-72
2022/04/17 12:53:42;;;;;;;1.10;1.10;;;;;;;13.56;38.58;100807.37;213065;1278;142100;-71
2022/04/17 12:58:59;;;;;;;1.80;1.70;;;;;;;13.53;38.31;100799.36;213388;1277;141982;-68
2022/04/17 13:04:21;;;;;;;2.80;2.10;;;;;;;13.41;38.24;100796.65;213583;1277;142072;-72
2022/04/17 13:09:27;;;;;;;1.50;1.20;;;;;;;13.09;38.18;100789.28;213171;1277;141212;-75
2022/04/17 13:14:30;;;;;;;1.30;1.20;;;;;;;12.91;38.47;100783.56;213424;1277;141207;-76
2022/04/17 13:19:32;;;;;;;1.70;1.60;;;;;;;12.86;38.69;100781.96;214247;1277;140476;-76
2022/04/17 13:24:35;;;;;;;2.30;1.40;;;;;;;12.83;38.02;100781.73;213262;1277;140782;-74
2022/04/17 13:29:38;;;;;;;1.30;1.20;;;;;;;12.65;37.53;100776.39;213388;1277;140983;-83
2022/04/17 13:34:42;;;;;;;1.70;1.50;;;;;;;12.43;37.47;100762.05;213815;1277;142423;-71
2022/04/17 13:39:45;;;;;;;1.20;1.10;;;;;;;12.20;37.07;100752.90;213199;1277;140583;-68
2022/04/17 13:44:47;;;;;;;2.80;1.20;;;;;;;12.08;37.96;100741.09;213268;1277;140815;-71
2022/04/17 13:49:50;;;;;;;3.60;1.20;;;;;;;12.09;38.21;100744.66;213194;1277;141718;-68
2022/04/17 13:54:53;;;;;;;1.20;1.20;;;;;;;12.04;38.58;100743.05;213150;1277;152142;-72
2022/04/17 13:59:56;;;;;;;1.30;1.20;;;;;;;12.05;38.28;100743.41;213012;1277;141220;-76
2022/04/17 14:05:01;;;;;;;3.00;2.00;;;;;;;11.98;37.92;100742.58;213812;1279;141229;-70
2022/04/17 14:10:04;;;;;;;1.20;1.10;;;;;;;11.96;37.94;100731.23;213286;1277;140430;-68
2022/04/17 14:15:08;;;;;;;2.10;1.40;;;;;;;11.98;38.13;100727.41;213471;1277;139508;-70
2022/04/17 14:20:10;;;;;;;2.80;1.50;;;;;;;11.88;38.62;100721.44;214307;1277;143424;-71
2022/04/17 14:25:18;;;;;;;1.30;1.20;;;;;;;11.92;38.22;100715.63;213592;1279;234674;-68
2022/04/17 14:30:26;;;;;;;1.60;1.00;;;;;;;11.91;37.92;100704.69;214784;1277;140467;-70
2022/04/17 14:35:29;;;;;;;1.50;1.10;;;;;;;11.87;38.44;100698.02;214571;1277;221591;-74
2022/04/17 14:40:32;;;;;;;2.40;2.10;;;;;;;11.82;38.02;100694.27;214826;1277;139628;-70
2022/04/17 14:45:43;;;;;;;1.50;1.40;;;;;;;11.72;38.24;100688.86;214307;1277;140726;-67
2022/04/17 14:50:47;;;;;;;1.10;1.00;;;;;;;11.58;38.26;100684.88;213825;1277;140993;-74
2022/04/17 14:55:52;;;;;;;2.60;1.60;;;;;;;11.58;38.39;100678.59;213211;1278;140661;-74
2022/04/17 15:00:54;;;;;;;2.10;1.80;;;;;;;11.56;38.83;100670.02;213579;1277;141310;-76
2022/04/17 15:05:57;;;;;;;1.90;1.40;;;;;;;11.52;38.69;100664.75;215522;1277;141518;-72
2022/04/17 15:11:02;;;;;;;2.20;2.00;;;;;;;11.43;38.56;100663.30;213761;1277;140225;-70
2022/04/17 15:16:06;;;;;;;2.00;1.90;;;;;;;11.37;38.85;100656.59;214125;1277;143686;-73
2022/04/17 15:21:08;;;;;;;1.70;1.50;;;;;;;11.35;39.21;100658.01;213379;1277;140249;-74
2022/04/17 15:26:11;;;;;;;2.10;1.90;;;;;;;11.31;38.96;100652.48;213815;1277;141127;-72
2022/04/17 15:31:15;;;;;;;1.80;1.70;;;;;;;11.21;39.06;100652.46;213885;1277;142449;-70
2022/04/17 15:36:23;;;;;;;3.40;2.50;;;;;;;11.13;39.23;100649.11;213273;1277;142332;-70
2022/04/17 15:41:26;;;;;;;2.50;2.20;;;;;;;11.12;39.52;100643.65;213450;1277;140818;-70
2022/04/17 15:51:52;;;;;;;2.10;2.00;;;;;;;11.05;39.44;100628.63;212895;1279;141970;-69
2022/04/17 15:56:57;;;;;;;3.00;2.80;;;;;;;11.04;39.38;100625.10;213704;1277;236113;-69
2022/04/17 16:02:04;;;;;;;4.70;2.30;;;;;;;10.99;39.60;100621.87;213156;1277;140385;-69
2022/04/17 16:07:07;;;;;;;4.00;2.80;;;;;;;10.83;39.60;100624.35;213752;1277;142285;-69
2022/04/17 16:12:11;;;;;;;2.40;2.20;;;;;;;10.60;39.62;100624.23;213661;1277;140892;-70
2022/04/17 16:17:15;;;;;;;2.20;1.90;;;;;;;10.38;39.64;100620.86;214527;1277;139694;-71
2022/04/17 16:22:20;;;;;;;2.80;2.30;;;;;;;10.27;39.91;100617.63;214395;1277;140384;-71
2022/04/17 16:27:25;;;;;;;1.90;1.80;;;;;;;10.09;39.65;100610.48;215020;1277;139827;-66
2022/04/17 16:32:30;;;;;;;2.00;1.80;;;;;;;9.95;39.76;100615.92;213333;1279;139886;-70
2022/04/17 16:37:35;;;;;;;1.90;1.70;;;;;;;9.85;40.17;100611.08;214177;1277;140374;-74
2022/04/17 16:42:37;;;;;;;1.90;1.60;;;;;;;9.73;40.40;100612.29;213539;1277;140151;-74
2022/04/17 16:47:40;;;;;;;1.90;1.80;;;;;;;9.59;40.56;100611.82;215965;1277;140914;-71
2022/04/17 16:52:43;;;;;;;2.00;1.90;;;;;;;9.49;41.34;100604.27;214933;1277;139849;-69
2022/04/17 17:03:08;;;;;;;3.70;2.50;;;;;;;9.40;41.98;100597.89;214886;1277;140471;-73
2022/04/17 17:08:14;;;;;;;2.70;2.50;;;;;;;9.34;42.07;100601.04;215364;1279;141661;-69
2022/04/17 17:13:17;;;;;;;4.60;3.00;;;;;;;9.22;42.32;100600.91;213618;1279;140675;-70
2022/04/17 17:18:20;;;;;;;2.30;2.10;;;;;;;9.10;42.99;100598.05;213740;1279;139459;-70
2022/04/17 17:23:23;;;;;;;1.40;1.30;;;;;;;8.91;43.49;100593.77;213489;1277;140176;-65
2022/04/17 17:28:27;;;;;;;1.30;1.20;;;;;;;8.73;44.20;100590.56;214068;1279;150014;-69
2022/04/17 17:33:30;;;;;;;4.60;2.40;;;;;;;8.55;45.24;100594.86;213084;1277;139527;-75
2022/04/17 17:38:35;;;;;;;4.00;1.90;;;;;;;8.39;45.80;100590.59;213308;1279;140068;-71
2022/04/17 17:43:39;;;;;;;2.30;1.90;;;;;;;8.21;46.33;100592.33;213287;1279;141402;-74
2022/04/17 17:48:42;;;;;;;1.90;1.80;;;;;;;8.02;46.82;100588.78;213522;1279;139125;-69
2022/04/17 17:53:47;;;;;;;3.50;2.00;;;;;;;7.82;47.13;100588.52;213532;1279;141679;-71
2022/04/17 17:58:51;;;;;;;2.30;2.10;;;;;;;7.60;47.49;100585.73;213288;1279;139130;-72
2022/04/17 18:03:57;;;;;;;6.60;2.40;;;;;;;7.36;47.51;100583.61;213405;1277;139457;-71
2022/04/17 18:14:30;;;;;;;4.20;2.50;;;;;;;6.85;48.86;100578.09;213089;1277;139670;-73
2022/04/17 18:19:38;;;;;;;2.50;2.00;;;;;;;6.54;50.05;100575.98;213992;1277;141921;-77
2022/04/17 18:24:45;;;;;;;4.90;2.60;;;;;;;6.30;50.48;100580.67;213904;1278;139520;-72
2022/04/17 18:29:48;;;;;;;4.00;2.50;;;;;;;6.09;50.94;100583.45;214797;1279;139676;-71
2022/04/17 18:34:50;;;;;;;4.80;2.10;;;;;;;5.79;51.88;100586.17;214592;1278;140735;-76
2022/04/17 18:39:54;;;;;;;8.00;3.50;;;;;;;5.48;52.40;100578.80;215078;1278;139589;-76
2022/04/17 18:44:56;;;;;;;3.00;2.20;;;;;;;5.28;52.66;100578.14;213332;1279;141166;-70
2022/04/17 18:50:00;;;;;;;4.50;2.40;;;;;;;5.04;52.80;100570.10;214592;1279;141438;-74
2022/04/17 18:55:05;;;;;;;3.90;3.00;;;;;;;4.78;53.20;100566.39;214516;1278;139473;-75
2022/04/17 19:00:10;;;;;;;4.10;3.10;;;;;;;4.61;53.72;100563.04;215426;1277;139155;-75
2022/04/17 19:05:12;;;;;;;3.90;2.70;;;;;;;4.54;54.39;100564.45;215223;1277;140470;-72
2022/04/17 19:10:18;;;;;;;3.90;3.60;;;;;;;4.41;54.68;100566.61;212627;1279;205900;-71
2022/04/17 19:15:21;;;;;;;2.20;2.00;;;;;;;4.23;55.76;100558.91;214418;1278;140494;-67
2022/04/17 19:20:23;;;;;;;4.70;2.60;;;;;;;4.04;56.73;100556.54;213486;1278;140308;-66
2022/04/17 19:25:26;;;;;;;4.30;3.20;;;;;;;3.86;57.08;100560.52;213460;1277;142271;-65
2022/04/17 19:30:29;;;;;;;5.30;3.50;;;;;;;3.75;57.23;100557.52;213338;1278;139735;-67
2022/04/17 19:35:31;;;;;;;7.20;3.40;;;;;;;3.68;57.89;100556.55;214055;1279;140883;-65
2022/04/17 19:40:36;;;;;;;3.90;2.90;;;;;;;3.51;57.81;100550.52;214063;1279;140141;-70
2022/04/17 19:45:40;;;;;;;5.10;3.80;;;;;;;3.32;58.27;100548.91;213806;1278;142002;-68
2022/04/17 19:50:42;;;;;;;4.60;3.50;;;;;;;3.18;58.68;100545.94;213253;1276;140113;-68
2022/04/17 19:55:45;;;;;;;5.40;3.50;;;;;;;3.02;58.65;100544.87;214120;1279;139869;-66
2022/04/17 20:00:47;;;;;;;5.80;4.00;;;;;;;2.90;59.66;100543.37;212884;1278;141023;-71
2022/04/17 20:05:50;;;;;;;5.60;4.10;;;;;;;2.76;59.61;100536.29;213088;1279;140588;-69
2022/04/17 20:10:53;;;;;;;6.60;5.40;;;;;;;2.61;60.19;100528.55;212864;1279;140273;-68
2022/04/17 20:15:59;;;;;;;5.80;4.60;;;;;;;2.51;60.15;100529.38;213110;1279;141588;-68
2022/04/17 20:21:02;;;;;;;7.40;5.60;;;;;;;2.35;60.53;100522.59;213049;1279;140539;-68
2022/04/17 20:26:04;;;;;;;7.00;4.70;;;;;;;2.22;61.04;100519.23;213920;1278;140776;-69
2022/04/17 20:31:06;;;;;;;7.20;4.70;;;;;;;2.07;61.29;100513.32;213679;1279;139955;-69
2022/04/17 20:36:09;;;;;;;7.10;5.10;;;;;;;1.95;61.67;100512.63;214208;1279;141426;-69
2022/04/17 20:41:12;;;;;;;9.00;5.10;;;;;;;1.89;61.85;100511.98;212873;1279;139591;-68
2022/04/17 20:51:35;;;;;;;15.00;7.40;;;;;;;1.67;62.24;100508.00;212990;1279;139643;-70
2022/04/17 20:56:38;;;;;;;13.30;6.70;;;;;;;1.55;62.92;100503.80;215493;1279;141893;-67
2022/04/17 21:01:44;;;;;;;14.60;9.10;;;;;;;1.46;63.01;100498.98;215414;1278;139976;-72
2022/04/17 21:06:47;;;;;;;12.60;8.00;;;;;;;1.38;63.45;100498.77;215166;1279;140497;-70
2022/04/17 21:11:51;;;;;;;10.20;6.10;;;;;;;1.32;63.52;100493.80;214799;1279;139967;-68
2022/04/17 21:16:53;;;;;;;12.70;7.00;;;;;;;1.27;63.95;100488.49;214490;1279;139959;-68
2022/04/17 21:21:56;;;;;;;16.80;9.90;;;;;;;1.27;64.26;100486.89;214591;1279;140007;-67
2022/04/17 21:26:59;;;;;;;19.30;7.40;;;;;;;1.27;63.88;100485.70;214282;1279;140998;-68
2022/04/17 21:32:01;;;;;;;15.40;9.20;;;;;;;1.26;64.74;100482.45;213536;1279;140258;-69
2022/04/17 21:37:08;;;;;;;10.10;8.10;;;;;;;1.24;64.56;100479.36;213242;1279;139828;-69
2022/04/17 21:42:11;;;;;;;10.00;7.40;;;;;;;1.10;64.79;100474.16;214165;1279;141005;-68
2022/04/17 21:47:17;;;;;;;8.90;6.40;;;;;;;0.96;64.90;100462.27;214559;1278;140491;-70
2022/04/17 21:52:20;;;;;;;13.50;7.50;;;;;;;0.88;65.20;100456.77;213999;1279;140681;-73
2022/04/17 21:57:25;;;;;;;10.20;6.30;;;;;;;0.83;65.53;100454.81;213062;1279;230852;-67
2022/04/17 22:07:49;;;;;;;12.70;6.80;;;;;;;0.63;65.56;100452.83;213231;1279;211088;-71
2022/04/17 22:12:52;;;;;;;11.10;6.80;;;;;;;0.53;65.82;100440.90;213690;1279;140648;-71
2022/04/17 22:17:54;;;;;;;24.80;13.50;;;;;;;0.47;65.97;100440.15;214306;1279;141109;-69
2022/04/17 22:22:57;;;;;;;29.90;16.40;;;;;;;0.46;66.41;100439.55;213529;1278;143988;-66
2022/04/17 22:28:00;;;;;;;35.30;18.60;;;;;;;0.45;66.54;100434.70;213639;1277;141181;-65
2022/04/17 22:33:03;;;;;;;17.60;8.90;;;;;;;0.45;66.57;100435.80;213879;1278;143431;-67
2022/04/17 22:38:05;;;;;;;22.00;13.30;;;;;;;0.43;66.34;100437.30;213243;1279;141062;-62
2022/04/17 22:43:08;;;;;;;26.20;14.10;;;;;;;0.34;66.43;100435.59;213170;1279;161636;-67
2022/04/17 22:48:11;;;;;;;24.80;14.20;;;;;;;0.21;66.57;100432.88;215111;1279;527771;-68
2022/04/17 22:53:14;;;;;;;17.40;11.00;;;;;;;0.11;66.58;100431.81;213640;1279;164360;-71
2022/04/17 22:58:18;;;;;;;18.30;10.00;;;;;;;-0.03;66.84;100421.42;213563;1278;141188;-69
2022/04/17 23:03:20;;;;;;;18.50;12.00;;;;;;;-0.07;67.23;100420.66;215500;1279;140038;-67
2022/04/17 23:08:23;;;;;;;26.30;13.10;;;;;;;-0.08;67.48;100412.48;215426;1279;141919;-66
2022/04/17 23:13:26;;;;;;;23.10;15.20;;;;;;;-0.07;67.58;100405.78;215332;1279;140279;-65
2022/04/17 23:18:32;;;;;;;27.00;16.10;;;;;;;-0.06;67.65;100396.59;215494;1278;141627;-67
2022/04/17 23:23:35;;;;;;;32.30;16.90;;;;;;;-0.10;67.55;100393.44;213885;1279;141238;-67
2022/04/17 23:28:38;;;;;;;24.00;12.20;;;;;;;-0.19;67.50;100387.97;214589;1278;140439;-65
2022/04/17 23:33:40;;;;;;;30.40;14.60;;;;;;;-0.28;67.81;100387.45;213262;1279;142974;-65